Time;durP1;ratioP1;P1;durP2;ratioP2;P2;SDS_P1;SDS_P2;PMS_P1;PMS_P2;Temp;Humidity;BMP_temperature;BMP_pressure;BME280_temperature;BME280_humidity;BME280_pressure;Samples;Min_cycle;Max_cycle;Signal;HPM_P1;HPM_P2
2021/07/06 00:01:22;;;;;;;12.60;8.13;;;;;;;18.49;62.42;98230.97;5101277;28;20479;-76
2021/07/06 00:03:47;;;;;;;12.73;8.13;;;;;;;18.45;62.49;98228.91;5096719;28;20479;-76
2021/07/06 00:06:12;;;;;;;12.07;8.23;;;;;;;18.43;62.42;98233.19;5097968;28;20035;-76
2021/07/06 00:08:37;;;;;;;12.38;8.43;;;;;;;18.39;62.56;98227.53;5097259;28;20030;-76
2021/07/06 00:11:03;;;;;;;11.05;8.13;;;;;;;18.35;62.42;98240.50;5099239;28;20031;-76
2021/07/06 00:13:28;;;;;;;11.05;8.13;;;;;;;18.29;62.74;98245.53;5080155;28;20054;-76
2021/07/06 00:15:53;;;;;;;9.90;7.63;;;;;;;18.24;62.84;98244.94;5098194;28;20043;-76
2021/07/06 00:18:19;;;;;;;9.93;7.63;;;;;;;18.19;62.70;98242.41;5097799;28;20035;-76
2021/07/06 00:20:44;;;;;;;14.00;8.70;;;;;;;18.15;63.13;98245.09;5097197;28;20061;-76
2021/07/06 00:23:10;;;;;;;10.80;7.82;;;;;;;18.09;62.68;98235.41;5101300;28;20511;-76
2021/07/06 00:25:35;;;;;;;11.60;8.32;;;;;;;18.02;63.14;98244.34;5100109;28;20032;-76
2021/07/06 00:28:00;;;;;;;11.30;8.02;;;;;;;17.95;63.21;98242.09;5100981;28;20055;-76
2021/07/06 00:30:26;;;;;;;11.73;7.78;;;;;;;17.91;62.70;98234.84;5101537;28;20058;-76
2021/07/06 00:32:52;;;;;;;11.57;7.97;;;;;;;17.87;63.04;98240.31;5105331;28;20019;-76
2021/07/06 00:35:18;;;;;;;10.80;8.77;;;;;;;17.81;63.29;98241.69;5099721;28;20023;-76
2021/07/06 00:37:45;;;;;;;15.60;9.88;;;;;;;17.76;63.68;98244.72;5102026;28;20027;-76
2021/07/06 00:40:11;;;;;;;13.68;8.93;;;;;;;17.70;63.56;98242.19;5101400;28;20023;-76
2021/07/06 00:42:41;;;;;;;15.10;9.45;;;;;;;17.67;63.56;98237.31;5104375;28;20030;-76
2021/07/06 00:45:08;;;;;;;14.77;9.60;;;;;;;17.65;63.87;98238.84;5081072;28;20017;-76
2021/07/06 00:47:35;;;;;;;12.88;8.93;;;;;;;17.62;63.76;98247.84;5100031;28;20432;-76
2021/07/06 00:50:03;;;;;;;13.95;9.65;;;;;;;17.60;63.97;98239.88;5099550;28;20019;-76
2021/07/06 00:52:29;;;;;;;12.70;8.90;;;;;;;17.55;63.58;98240.94;5095286;28;20028;-76
2021/07/06 00:54:54;;;;;;;12.18;8.70;;;;;;;17.52;63.84;98244.41;5095931;28;20026;-76
2021/07/06 00:57:29;;;;;;;13.00;9.00;;;;;;;17.50;63.92;98248.69;5097192;28;20036;-76
2021/07/06 01:00:11;;;;;;;12.40;9.18;;;;;;;17.44;63.71;98255.63;5096520;28;20016;-76
2021/07/06 01:02:37;;;;;;;12.35;9.20;;;;;;;17.41;64.00;98246.84;5099143;28;20016;-76
2021/07/06 01:05:06;;;;;;;14.50;10.50;;;;;;;17.37;64.22;98257.00;5096663;28;20048;-76
2021/07/06 01:07:32;;;;;;;13.98;10.85;;;;;;;17.34;64.30;98252.16;5098005;28;20032;-76
2021/07/06 01:09:57;;;;;;;14.95;11.18;;;;;;;17.34;64.42;98260.47;5100249;28;20417;-76
2021/07/06 01:12:23;;;;;;;18.10;12.77;;;;;;;17.32;64.65;98254.44;5098723;28;20357;-76
2021/07/06 01:14:48;;;;;;;17.20;11.90;;;;;;;17.29;64.98;98254.34;5094835;28;20111;-77
2021/07/06 01:17:13;;;;;;;15.77;11.85;;;;;;;17.28;64.76;98261.03;5092488;28;20468;-76
2021/07/06 01:19:41;;;;;;;21.17;13.05;;;;;;;17.24;64.90;98261.72;5095518;28;20097;-76
2021/07/06 01:22:08;;;;;;;22.40;14.82;;;;;;;17.25;64.75;98255.03;5104990;28;20038;-76
2021/07/06 01:24:39;;;;;;;24.70;15.13;;;;;;;17.26;65.01;98255.84;5104175;28;20016;-76
2021/07/06 01:27:05;;;;;;;20.38;15.13;;;;;;;17.25;65.25;98252.28;5098116;28;20023;-76
2021/07/06 01:29:31;;;;;;;23.52;15.40;;;;;;;17.24;65.42;98250.66;5098629;28;20043;-76
2021/07/06 01:31:56;;;;;;;22.58;15.25;;;;;;;17.22;65.45;98249.38;5097605;28;20062;-76
2021/07/06 01:34:22;;;;;;;26.35;15.95;;;;;;;17.20;65.19;98246.94;5099350;28;20376;-76
2021/07/06 01:36:47;;;;;;;21.65;14.70;;;;;;;17.17;65.37;98242.09;5096859;28;20035;-75
2021/07/06 01:39:14;;;;;;;21.92;14.55;;;;;;;17.17;65.78;98239.31;5098508;28;20020;-76
2021/07/06 01:41:41;;;;;;;21.50;14.55;;;;;;;17.16;65.75;98236.88;5099592;28;20026;-76
2021/07/06 01:44:20;;;;;;;22.90;14.75;;;;;;;17.17;65.85;98242.09;5099384;28;20024;-76
2021/07/06 01:46:45;;;;;;;22.38;15.45;;;;;;;17.16;65.86;98243.25;5097655;28;20072;-76
2021/07/06 01:49:13;;;;;;;24.73;16.52;;;;;;;17.14;65.82;98240.00;5099042;28;20028;-76
2021/07/06 01:51:38;;;;;;;22.83;15.90;;;;;;;17.15;66.15;98236.09;5104756;28;20471;-76
2021/07/06 01:54:03;;;;;;;23.42;15.02;;;;;;;17.13;66.42;98235.63;5105663;28;20020;-76
2021/07/06 01:56:28;;;;;;;27.77;16.77;;;;;;;17.15;66.00;98233.31;5099409;28;20034;-76
2021/07/06 01:58:56;;;;;;;23.50;15.25;;;;;;;17.15;66.54;98244.41;5105318;28;20490;-75
2021/07/06 02:01:21;;;;;;;25.98;14.80;;;;;;;17.13;66.23;98241.16;5103556;28;20493;-75
2021/07/06 02:03:50;;;;;;;20.50;14.77;;;;;;;17.13;66.47;98241.16;5105699;28;20027;-76
2021/07/06 02:06:16;;;;;;;21.65;13.93;;;;;;;17.13;66.22;98232.03;5101596;28;20488;-76
2021/07/06 02:08:41;;;;;;;25.83;14.73;;;;;;;17.08;66.33;98230.31;5106415;28;20030;-76
2021/07/06 02:11:08;;;;;;;27.63;14.93;;;;;;;17.07;66.42;98237.00;5105939;28;20035;-76
2021/07/06 02:13:33;;;;;;;26.80;15.35;;;;;;;17.05;66.07;98233.78;5105844;28;20065;-76
2021/07/06 02:15:59;;;;;;;22.05;14.68;;;;;;;17.02;66.10;98234.44;5103734;28;20063;-76
2021/07/06 02:18:27;;;;;;;22.38;14.52;;;;;;;17.00;66.29;98231.22;5105469;28;20024;-76
2021/07/06 02:20:54;;;;;;;21.13;13.75;;;;;;;16.96;66.37;98228.34;5106745;28;20468;-75
2021/07/06 02:23:21;;;;;;;22.70;14.27;;;;;;;16.91;66.27;98229.31;5083794;28;20035;-76
2021/07/06 02:25:47;;;;;;;21.70;14.68;;;;;;;16.86;66.66;98234.28;5098293;28;20011;-76
2021/07/06 02:28:12;;;;;;;22.98;13.40;;;;;;;16.79;66.61;98237.63;5098121;28;20024;-76
2021/07/06 02:30:38;;;;;;;21.98;14.43;;;;;;;16.75;66.96;98234.72;5099941;28;20107;-76
2021/07/06 02:33:04;;;;;;;20.60;14.23;;;;;;;16.74;66.83;98232.31;5098604;28;20028;-76
2021/07/06 02:35:29;;;;;;;22.23;13.70;;;;;;;16.73;66.95;98239.00;5099344;28;20490;-76
2021/07/06 02:37:56;;;;;;;21.42;14.63;;;;;;;16.70;66.98;98239.69;5098388;28;20023;-76
2021/07/06 02:40:22;;;;;;;21.92;15.02;;;;;;;16.71;66.56;98235.75;5098812;28;20036;-76
2021/07/06 02:42:48;;;;;;;22.23;14.35;;;;;;;16.71;67.05;98241.31;5100845;28;20115;-76
2021/07/06 02:45:15;;;;;;;20.67;14.38;;;;;;;16.73;67.06;98231.50;5100529;28;20457;-76
2021/07/06 02:47:41;;;;;;;22.08;15.07;;;;;;;16.75;67.59;98240.25;5100612;28;20027;-76
2021/07/06 02:50:08;;;;;;;25.52;14.90;;;;;;;16.79;67.38;98238.44;5097037;28;20091;-76
2021/07/06 02:52:33;;;;;;;20.75;14.43;;;;;;;16.81;67.90;98241.66;5095914;28;20493;-76
2021/07/06 02:54:59;;;;;;;23.58;15.20;;;;;;;16.80;67.34;98242.81;5097448;28;20076;-76
2021/07/06 02:57:34;;;;;;;23.45;14.82;;;;;;;16.80;67.43;98236.47;5096814;28;20024;-76
2021/07/06 03:00:09;;;;;;;23.63;15.25;;;;;;;16.81;67.32;98238.09;5103007;28;20024;-76
2021/07/06 03:02:36;;;;;;;22.25;13.85;;;;;;;16.79;67.38;98227.34;5103738;28;20020;-76
2021/07/06 03:05:03;;;;;;;25.98;16.23;;;;;;;16.78;67.34;98239.59;5101161;28;20119;-76
2021/07/06 03:07:29;;;;;;;24.17;15.80;;;;;;;16.76;67.48;98239.13;5104209;28;20030;-76
2021/07/06 03:09:54;;;;;;;23.35;15.80;;;;;;;16.76;67.35;98238.31;5103872;28;20028;-76
2021/07/06 03:12:20;;;;;;;24.77;15.70;;;;;;;16.72;67.03;98234.63;5104146;28;20015;-76
2021/07/06 03:14:45;;;;;;;23.25;16.15;;;;;;;16.70;67.15;98234.97;5103611;28;20447;-76
2021/07/06 03:17:10;;;;;;;22.02;15.75;;;;;;;16.69;67.19;98229.75;5103300;28;20024;-76
2021/07/06 03:19:35;;;;;;;26.73;16.70;;;;;;;16.66;67.56;98240.38;5103773;28;20016;-76
2021/07/06 03:22:01;;;;;;;25.17;16.42;;;;;;;16.66;68.08;98231.28;5106417;28;20015;-76
2021/07/06 03:24:26;;;;;;;24.98;16.33;;;;;;;16.69;67.92;98241.66;5104839;28;20376;-76
2021/07/06 03:26:52;;;;;;;25.90;16.65;;;;;;;16.75;68.11;98250.53;5104223;28;20107;-76
2021/07/06 03:29:17;;;;;;;24.55;16.25;;;;;;;16.77;68.21;98256.56;5105417;28;20054;-76
2021/07/06 03:31:42;;;;;;;23.88;15.93;;;;;;;16.79;68.36;98249.50;5105966;28;20145;-76
2021/07/06 03:34:08;;;;;;;26.05;15.75;;;;;;;16.84;67.88;98259.56;5107353;28;20120;-76
2021/07/06 03:36:33;;;;;;;24.08;16.05;;;;;;;16.88;68.54;98260.50;5084574;28;20525;-76
2021/07/06 03:38:58;;;;;;;27.33;16.63;;;;;;;16.91;68.39;98264.53;5107639;28;20023;-76
2021/07/06 03:41:23;;;;;;;24.02;16.35;;;;;;;16.93;68.64;98248.38;5106608;28;20042;-75
2021/07/06 03:43:49;;;;;;;25.38;16.48;;;;;;;16.96;68.34;98253.28;5105628;28;20024;-76
2021/07/06 03:46:14;;;;;;;27.38;16.58;;;;;;;17.00;68.43;98265.28;5103686;28;20024;-75
2021/07/06 03:48:39;;;;;;;29.15;17.45;;;;;;;17.03;68.74;98270.13;5107514;28;20027;-76
2021/07/06 03:51:05;;;;;;;24.67;16.10;;;;;;;17.07;68.79;98275.78;5108511;28;20086;-76
2021/07/06 03:53:30;;;;;;;28.02;16.45;;;;;;;17.09;68.87;98279.03;5108256;28;20146;-76
2021/07/06 03:55:55;;;;;;;24.10;15.90;;;;;;;17.13;69.16;98268.06;5104100;28;20115;-75
2021/07/06 03:58:21;;;;;;;24.15;14.60;;;;;;;17.15;68.92;98265.75;5106816;28;20042;-76
2021/07/06 04:00:46;;;;;;;20.30;14.73;;;;;;;17.17;69.02;98266.22;5104710;28;20502;-76
2021/07/06 04:03:11;;;;;;;23.30;14.85;;;;;;;17.24;69.48;98269.22;5102556;28;20058;-76
2021/07/06 04:05:37;;;;;;;27.17;16.58;;;;;;;17.29;69.52;98265.44;5083947;28;20472;-76
2021/07/06 04:08:02;;;;;;;26.75;15.60;;;;;;;17.32;69.51;98270.28;5101494;28;20028;-75
2021/07/06 04:10:28;;;;;;;22.58;14.25;;;;;;;17.36;69.70;98269.25;5102436;28;20039;-76
2021/07/06 04:12:53;;;;;;;28.10;15.77;;;;;;;17.38;69.47;98268.88;5102339;28;20032;-75
2021/07/06 04:15:20;;;;;;;27.20;19.33;;;;;;;17.40;69.86;98275.72;5102102;28;20024;-76
2021/07/06 04:17:46;;;;;;;27.13;18.70;;;;;;;17.46;70.06;98272.72;5103766;28;20388;-76
2021/07/06 04:20:13;;;;;;;21.60;15.60;;;;;;;17.55;69.58;98273.38;5084616;28;20384;-76
2021/07/06 04:22:40;;;;;;;22.55;15.07;;;;;;;17.59;69.66;98271.53;5104765;28;20029;-76
2021/07/06 04:25:06;;;;;;;20.92;13.38;;;;;;;17.65;69.70;98270.13;5103740;28;20157;-76
2021/07/06 04:27:32;;;;;;;24.42;14.73;;;;;;;17.71;69.95;98273.50;5086751;28;20043;-76
2021/07/06 04:29:57;;;;;;;24.23;15.18;;;;;;;17.79;69.87;98268.97;5103969;28;20280;-76
2021/07/06 04:32:23;;;;;;;21.95;14.40;;;;;;;17.85;70.03;98271.16;5105417;28;20028;-76
2021/07/06 04:34:51;;;;;;;21.98;14.27;;;;;;;17.93;69.83;98266.63;5104791;28;20016;-75
2021/07/06 04:37:17;;;;;;;22.48;13.57;;;;;;;18.03;69.96;98265.38;5104333;28;20091;-76
2021/07/06 04:39:43;;;;;;;21.20;14.63;;;;;;;18.10;70.56;98273.09;5106481;28;20079;-76
2021/07/06 04:42:08;;;;;;;22.27;14.73;;;;;;;18.13;70.14;98275.16;5104627;28;20373;-76
2021/07/06 04:44:34;;;;;;;24.40;14.80;;;;;;;18.15;70.04;98270.09;5104846;28;20028;-76
2021/07/06 04:46:59;;;;;;;23.67;15.07;;;;;;;18.20;69.44;98269.00;5104222;28;20387;-76
2021/07/06 04:49:27;;;;;;;25.65;15.30;;;;;;;18.23;69.57;98271.91;5107097;28;20096;-76
2021/07/06 04:51:53;;;;;;;22.98;14.80;;;;;;;18.30;69.82;98271.28;5102949;28;20149;-77
2021/07/06 04:54:23;;;;;;;23.50;15.43;;;;;;;18.35;69.49;98273.00;5084960;28;20114;-76
2021/07/06 04:56:48;;;;;;;24.83;14.45;;;;;;;18.40;69.09;98270.81;5105930;28;20054;-77
2021/07/06 04:59:13;;;;;;;24.08;14.55;;;;;;;18.48;69.43;98271.00;5104548;28;20043;-76
2021/07/06 05:01:39;;;;;;;20.10;13.63;;;;;;;18.53;69.40;98266.00;5093192;28;20028;-77
2021/07/06 05:04:04;;;;;;;23.63;13.48;;;;;;;18.60;69.10;98265.38;5088011;28;20027;-76
2021/07/06 05:06:30;;;;;;;20.08;12.63;;;;;;;18.67;69.67;98268.34;5092658;28;20056;-76
2021/07/06 05:08:55;;;;;;;18.45;12.15;;;;;;;18.73;69.25;98268.94;5113225;28;20034;-76
2021/07/06 05:11:20;;;;;;;20.42;13.07;;;;;;;18.75;68.84;98277.69;5112851;28;20027;-76
2021/07/06 05:13:46;;;;;;;21.23;12.95;;;;;;;18.80;68.79;98274.66;5113033;28;20027;-76
2021/07/06 05:16:11;;;;;;;22.65;13.38;;;;;;;18.85;68.70;98279.94;5112385;28;20032;-77
2021/07/06 05:18:36;;;;;;;16.75;11.68;;;;;;;18.89;68.75;98283.63;5112977;28;20111;-77
2021/07/06 05:21:02;;;;;;;20.77;12.90;;;;;;;18.95;69.01;98283.38;5112390;28;20384;-79
2021/07/06 05:23:27;;;;;;;19.00;11.75;;;;;;;19.02;68.73;98283.59;5112743;28;20042;-79
2021/07/06 05:25:53;;;;;;;19.25;11.90;;;;;;;19.12;68.60;98273.91;5095202;28;20388;-78
2021/07/06 05:28:18;;;;;;;18.42;11.75;;;;;;;19.23;68.80;98277.78;5112612;28;20035;-78
2021/07/06 05:30:43;;;;;;;20.35;11.48;;;;;;;19.31;68.43;98273.19;5112783;28;20032;-78
2021/07/06 05:33:10;;;;;;;18.80;10.95;;;;;;;19.39;68.36;98276.94;5108925;28;20460;-79
2021/07/06 05:35:35;;;;;;;16.98;11.32;;;;;;;19.50;68.32;98278.03;5106314;28;20032;-79
2021/07/06 05:38:02;;;;;;;18.42;10.57;;;;;;;19.60;68.07;98282.22;5094457;28;20031;-79
2021/07/06 05:40:28;;;;;;;19.77;11.52;;;;;;;19.67;68.01;98271.28;5112717;28;20036;-79
2021/07/06 05:42:53;;;;;;;17.90;11.35;;;;;;;19.75;67.49;98278.63;5112885;28;20034;-79
2021/07/06 05:45:19;;;;;;;16.85;10.93;;;;;;;19.83;67.73;98274.00;5102356;28;20039;-79
2021/07/06 05:47:44;;;;;;;17.15;11.05;;;;;;;19.91;67.44;98280.59;5096329;28;20514;-78
2021/07/06 05:50:12;;;;;;;19.02;12.23;;;;;;;19.98;67.58;98282.72;5091959;28;20111;-79
2021/07/06 05:52:38;;;;;;;18.88;11.57;;;;;;;20.05;67.38;98285.66;5092120;28;20032;-79
2021/07/06 05:55:05;;;;;;;19.38;11.35;;;;;;;20.12;67.18;98285.84;5091630;28;20031;-79
2021/07/06 05:57:30;;;;;;;16.40;9.68;;;;;;;20.21;66.98;98296.75;5092022;28;20107;-79
2021/07/06 06:00:00;;;;;;;15.50;9.88;;;;;;;20.27;66.81;98289.72;5092251;28;20116;-78
2021/07/06 06:02:27;;;;;;;18.55;10.45;;;;;;;20.32;66.43;98300.56;5091183;28;20027;-78
2021/07/06 06:04:52;;;;;;;19.77;8.98;;;;;;;20.40;66.38;98300.69;5091839;28;20075;-79
2021/07/06 06:07:18;;;;;;;21.38;10.07;;;;;;;20.49;66.22;98298.50;5091164;28;20056;-78
2021/07/06 06:09:43;;;;;;;18.45;9.25;;;;;;;20.57;66.10;98305.84;5091999;28;21103;-79
2021/07/06 06:12:10;;;;;;;16.38;9.68;;;;;;;20.64;65.98;98308.78;5102393;28;20024;-78
2021/07/06 06:14:36;;;;;;;13.43;8.27;;;;;;;20.73;65.77;98307.75;5112207;28;20019;-78
2021/07/06 06:17:01;;;;;;;13.50;8.23;;;;;;;20.84;65.56;98316.34;5111131;28;20081;-78
2021/07/06 06:19:27;;;;;;;12.77;8.15;;;;;;;20.92;65.41;98312.53;5111832;28;20468;-78
2021/07/06 06:21:52;;;;;;;12.18;7.20;;;;;;;21.00;65.05;98307.88;5111798;28;20027;-78
2021/07/06 06:24:17;;;;;;;13.07;6.70;;;;;;;21.10;64.71;98307.28;5112152;28;20082;-79
2021/07/06 06:26:43;;;;;;;10.63;6.55;;;;;;;21.15;64.50;98303.38;5111159;28;20077;-78
2021/07/06 06:29:08;;;;;;;12.35;6.47;;;;;;;21.23;64.31;98303.09;5112108;28;20551;-79
2021/07/06 06:31:33;;;;;;;12.70;6.97;;;;;;;21.29;64.12;98313.97;5112136;28;20490;-78
2021/07/06 06:33:59;;;;;;;11.35;7.20;;;;;;;21.35;63.78;98310.50;5098742;28;20065;-78
2021/07/06 06:36:24;;;;;;;11.52;7.57;;;;;;;21.39;63.77;98307.75;5111381;28;20106;-78
2021/07/06 06:38:49;;;;;;;13.32;7.38;;;;;;;21.46;63.44;98316.25;5111827;28;20027;-78
2021/07/06 06:41:15;;;;;;;12.43;7.18;;;;;;;21.53;63.30;98319.16;5112056;28;20024;-78
2021/07/06 06:43:40;;;;;;;11.32;6.57;;;;;;;21.58;63.21;98318.03;5111902;28;20088;-78
2021/07/06 06:46:05;;;;;;;12.95;7.68;;;;;;;21.66;62.94;98311.44;5095587;28;20064;-78
2021/07/06 06:48:32;;;;;;;10.27;6.70;;;;;;;21.76;62.90;98315.56;5096522;28;20136;-78
2021/07/06 06:50:57;;;;;;;11.15;7.25;;;;;;;21.84;62.98;98320.06;5091664;28;20161;-78
2021/07/06 06:53:22;;;;;;;6.32;4.72;;;;;;;21.91;62.00;98324.16;5091257;28;20143;-78
2021/07/06 06:55:48;;;;;;;8.13;4.47;;;;;;;21.99;62.03;98323.88;5093489;28;20111;-79
2021/07/06 06:58:13;;;;;;;8.85;5.10;;;;;;;22.08;61.86;98320.81;5093368;28;20099;-77
2021/07/06 07:00:39;;;;;;;8.98;5.38;;;;;;;22.16;61.62;98330.13;5091619;28;20067;-76
2021/07/06 07:03:04;;;;;;;9.48;4.90;;;;;;;22.23;61.89;98326.59;5098470;28;20423;-76
2021/07/06 07:05:29;;;;;;;7.85;5.50;;;;;;;22.34;61.60;98335.13;5096771;28;20132;-74
2021/07/06 07:07:57;;;;;;;9.45;5.47;;;;;;;22.44;61.14;98340.09;5089440;28;20593;-74
2021/07/06 07:10:24;;;;;;;9.40;5.30;;;;;;;22.51;61.12;98334.59;5095507;28;20059;-77
2021/07/06 07:12:49;;;;;;;13.48;5.53;;;;;;;22.56;60.68;98328.69;5096158;28;20085;-77
2021/07/06 07:15:15;;;;;;;9.05;5.30;;;;;;;22.63;60.42;98325.16;5072082;28;20031;-77
2021/07/06 07:17:40;;;;;;;10.23;5.40;;;;;;;22.72;60.41;98339.66;5100297;28;20067;-77
2021/07/06 07:20:07;;;;;;;8.43;5.22;;;;;;;22.80;60.57;98332.13;5094449;28;20036;-76
2021/07/06 07:22:33;;;;;;;8.48;5.22;;;;;;;22.86;59.48;98340.97;5093549;28;20028;-76
2021/07/06 07:24:59;;;;;;;7.82;4.65;;;;;;;22.87;59.64;98334.19;5098382;28;20050;-75
2021/07/06 07:27:24;;;;;;;7.95;4.88;;;;;;;22.93;59.65;98343.88;5094114;28;20039;-76
2021/07/06 07:29:49;;;;;;;7.57;4.95;;;;;;;22.97;59.55;98335.53;5090011;28;20016;-76
2021/07/06 07:32:15;;;;;;;7.25;4.72;;;;;;;23.02;59.11;98338.00;5077923;28;20067;-76
2021/07/06 07:34:42;;;;;;;5.68;4.28;;;;;;;23.11;58.70;98338.47;5100019;28;20024;-76
2021/07/06 07:37:08;;;;;;;7.90;5.05;;;;;;;23.20;58.79;98335.38;5089095;28;20059;-76
2021/07/06 07:39:34;;;;;;;5.68;4.95;;;;;;;23.27;58.52;98334.66;5098069;28;20103;-76
2021/07/06 07:42:03;;;;;;;8.10;5.75;;;;;;;23.31;58.48;98339.09;5101085;28;20020;-77
2021/07/06 07:44:28;;;;;;;5.63;4.50;;;;;;;23.34;58.09;98334.72;5101418;28;20036;-77
2021/07/06 07:46:54;;;;;;;6.63;4.68;;;;;;;23.38;57.90;98332.78;5098809;28;20028;-78
2021/07/06 07:49:19;;;;;;;7.63;5.50;;;;;;;23.42;57.39;98336.41;5096518;28;20042;-78
2021/07/06 07:51:45;;;;;;;5.68;4.53;;;;;;;23.48;57.18;98325.66;5101396;28;20028;-76
2021/07/06 07:54:10;;;;;;;6.25;4.65;;;;;;;23.52;57.59;98326.50;5102115;28;20023;-77
2021/07/06 07:56:37;;;;;;;7.75;5.57;;;;;;;23.69;57.26;98333.44;5089584;28;20784;-76
2021/07/06 07:59:04;;;;;;;8.32;5.00;;;;;;;23.77;57.06;98329.50;5096754;28;20085;-77
2021/07/06 08:01:29;;;;;;;7.53;4.90;;;;;;;23.86;56.91;98331.13;5092945;28;20029;-78
2021/07/06 08:03:54;;;;;;;7.15;4.93;;;;;;;23.97;56.44;98331.22;5100780;28;20023;-77
2021/07/06 08:06:20;;;;;;;8.38;4.63;;;;;;;24.03;56.54;98324.88;5104521;28;20123;-77
2021/07/06 08:08:45;;;;;;;7.80;5.10;;;;;;;24.08;56.33;98315.31;5095735;28;20490;-77
2021/07/06 08:11:11;;;;;;;6.30;4.38;;;;;;;24.16;55.84;98324.56;5102858;28;20024;-77
2021/07/06 08:13:36;;;;;;;5.57;4.50;;;;;;;24.19;54.76;98318.19;5111077;28;20023;-77
2021/07/06 08:16:02;;;;;;;7.25;4.78;;;;;;;24.23;55.11;98317.00;5101255;28;20460;-76
2021/07/06 08:18:28;;;;;;;5.97;4.40;;;;;;;24.29;55.27;98317.41;5108361;28;20038;-76
2021/07/06 08:20:54;;;;;;;5.72;4.40;;;;;;;24.36;55.42;98313.88;5095175;28;20024;-77
2021/07/06 08:23:19;;;;;;;7.28;4.78;;;;;;;24.37;54.62;98315.47;5097830;28;20372;-79
2021/07/06 08:25:45;;;;;;;6.85;4.57;;;;;;;24.42;54.52;98314.28;5098322;28;20103;-79
2021/07/06 08:28:10;;;;;;;6.97;4.68;;;;;;;24.48;54.27;98316.31;5093527;28;20107;-75
2021/07/06 08:30:36;;;;;;;5.63;4.38;;;;;;;24.61;54.64;98315.97;5092142;28;20491;-77
2021/07/06 08:33:01;;;;;;;5.95;4.85;;;;;;;24.66;54.15;98309.97;5099347;28;20027;-76
2021/07/06 08:35:26;;;;;;;6.82;4.40;;;;;;;24.76;54.23;98314.03;5095554;28;20040;-75
2021/07/06 08:37:52;;;;;;;5.70;4.30;;;;;;;24.77;52.64;98312.84;5096798;28;20031;-74
2021/07/06 08:40:18;;;;;;;4.25;3.35;;;;;;;24.77;52.59;98307.25;5101473;28;20689;-75
2021/07/06 08:42:44;;;;;;;5.75;3.35;;;;;;;24.82;52.38;98316.09;5097673;28;20042;-76
2021/07/06 08:45:11;;;;;;;3.30;3.00;;;;;;;24.81;50.44;98302.44;5097156;28;20099;-75
2021/07/06 08:47:38;;;;;;;3.88;2.97;;;;;;;24.82;50.68;98307.69;5107163;28;20038;-78
2021/07/06 08:50:06;;;;;;;5.28;3.60;;;;;;;24.88;51.94;98313.69;5112021;28;20019;-78
2021/07/06 08:52:32;;;;;;;6.03;3.70;;;;;;;25.02;51.19;98320.53;5102270;28;20030;-76
2021/07/06 08:54:59;;;;;;;5.47;4.18;;;;;;;25.14;50.84;98320.16;5105956;28;20055;-76
2021/07/06 08:57:24;;;;;;;7.10;4.10;;;;;;;25.14;50.02;98322.94;5092137;28;20479;-76
2021/07/06 08:59:50;;;;;;;5.22;3.55;;;;;;;25.17;50.22;98322.16;5101296;28;20028;-76
2021/07/06 09:02:21;;;;;;;4.75;3.58;;;;;;;25.23;50.71;98316.97;5098594;28;20446;-76
2021/07/06 09:04:47;;;;;;;4.32;3.80;;;;;;;25.25;49.84;98323.78;5092353;28;20546;-78
2021/07/06 09:07:14;;;;;;;5.75;3.78;;;;;;;25.32;49.81;98319.38;5094142;28;20059;-81
2021/07/06 09:09:40;;;;;;;6.75;4.00;;;;;;;25.38;50.05;98327.00;5105315;28;20379;-78
2021/07/06 09:12:07;;;;;;;3.97;3.60;;;;;;;25.50;50.18;98316.63;5098237;28;20032;-77
2021/07/06 09:14:36;;;;;;;3.40;3.10;;;;;;;25.53;47.80;98315.81;5092961;28;20029;-76
2021/07/06 09:17:15;;;;;;;4.95;3.47;;;;;;;25.51;48.07;98307.00;5108836;28;20380;-77
2021/07/06 09:19:42;;;;;;;3.83;3.42;;;;;;;25.58;48.52;98301.38;5093788;28;20048;-77
2021/07/06 09:22:18;;;;;;;3.90;3.28;;;;;;;25.77;49.29;98304.97;5084039;28;20219;-77
2021/07/06 09:24:48;;;;;;;8.30;3.47;;;;;;;25.98;49.65;98306.94;5105105;28;20485;-76
2021/07/06 09:27:25;;;;;;;4.55;3.42;;;;;;;26.11;49.08;98310.13;5101201;28;20031;-76
2021/07/06 09:30:20;;;;;;;5.13;3.30;;;;;;;26.14;48.89;98306.53;5098378;28;20424;-75
2021/07/06 09:32:48;;;;;;;7.70;3.90;;;;;;;26.03;48.27;98303.72;5096553;28;20073;-77
2021/07/06 09:35:18;;;;;;;4.00;3.25;;;;;;;25.91;47.72;98312.56;5095107;28;20016;-78
2021/07/06 09:37:49;;;;;;;4.20;2.90;;;;;;;25.87;47.47;98301.34;5103568;28;20495;-76
2021/07/06 09:40:29;;;;;;;6.97;2.72;;;;;;;25.86;47.15;98297.75;5089800;28;20020;-76
2021/07/06 09:43:24;;;;;;;3.03;2.50;;;;;;;25.81;46.80;98297.34;5091517;28;20039;-76
2021/07/06 09:46:08;;;;;;;4.72;2.50;;;;;;;25.74;46.70;98286.91;5102225;28;20556;-74
2021/07/06 09:48:35;;;;;;;4.35;2.80;;;;;;;25.76;46.88;98286.50;5097637;28;20032;-76
2021/07/06 09:51:11;;;;;;;4.55;2.35;;;;;;;25.90;47.55;98280.88;5093089;28;20020;-76
2021/07/06 09:53:36;;;;;;;4.22;2.53;;;;;;;26.00;46.02;98279.22;5109805;28;20540;-77
2021/07/06 09:56:15;;;;;;;3.80;2.70;;;;;;;26.09;46.69;98270.38;5092487;28;20028;-77
2021/07/06 09:59:00;;;;;;;4.28;1.92;;;;;;;26.23;46.05;98276.00;5091587;28;20461;-77
2021/07/06 10:01:26;;;;;;;2.80;1.95;;;;;;;26.36;46.40;98278.38;5091090;28;20379;-76
2021/07/06 10:03:54;;;;;;;1.58;1.48;;;;;;;26.48;45.28;98275.09;5091500;28;20414;-78
2021/07/06 10:06:24;;;;;;;2.78;1.50;;;;;;;26.53;45.10;98273.88;5106309;28;20484;-75
2021/07/06 10:08:52;;;;;;;2.83;1.80;;;;;;;26.62;44.76;98281.84;5102247;28;20122;-74
2021/07/06 10:11:18;;;;;;;1.90;1.70;;;;;;;26.70;43.32;98278.59;5095447;28;20035;-76
2021/07/06 10:13:43;;;;;;;2.08;1.73;;;;;;;26.78;43.47;98278.56;5082655;28;20067;-77
2021/07/06 10:16:10;;;;;;;2.95;1.80;;;;;;;26.75;42.49;98269.72;5091844;28;20471;-76
2021/07/06 10:18:36;;;;;;;1.92;1.73;;;;;;;26.83;42.90;98273.34;5108902;28;20019;-75
2021/07/06 10:21:04;;;;;;;2.97;1.80;;;;;;;26.89;41.71;98268.06;5081560;28;20020;-74
2021/07/06 10:23:32;;;;;;;2.00;1.67;;;;;;;27.01;42.61;98259.16;5090188;28;20024;-74
2021/07/06 10:25:59;;;;;;;3.78;1.80;;;;;;;27.19;42.22;98266.66;5089912;28;20078;-75
2021/07/06 10:28:28;;;;;;;4.55;1.70;;;;;;;27.27;41.82;98264.59;5090534;28;20024;-74
2021/07/06 10:30:55;;;;;;;2.70;1.80;;;;;;;27.30;41.30;98267.38;5095164;28;20032;-74
2021/07/06 10:33:23;;;;;;;2.78;1.70;;;;;;;27.40;42.04;98267.72;5093643;28;20031;-75
2021/07/06 10:35:50;;;;;;;2.50;1.60;;;;;;;27.46;41.16;98269.66;5110076;28;20035;-75
2021/07/06 10:38:31;;;;;;;1.95;1.55;;;;;;;27.52;41.19;98275.66;5107393;28;20165;-75
2021/07/06 10:41:08;;;;;;;2.63;1.90;;;;;;;27.64;41.30;98269.53;5107398;28;20439;-76
2021/07/06 10:43:37;;;;;;;4.55;2.20;;;;;;;27.79;41.45;98269.41;5110871;28;20032;-77
2021/07/06 10:46:20;;;;;;;2.50;2.30;;;;;;;27.86;41.62;98260.88;5094645;28;20115;-76
2021/07/06 10:48:48;;;;;;;4.45;2.03;;;;;;;27.88;41.28;98257.63;5102809;28;20665;-76
2021/07/06 10:51:38;;;;;;;3.50;1.87;;;;;;;27.97;40.45;98263.56;5094839;28;20032;-76
2021/07/06 10:54:05;;;;;;;3.03;1.77;;;;;;;27.97;39.59;98257.94;5100688;28;20263;-75
2021/07/06 10:56:32;;;;;;;2.85;1.90;;;;;;;27.97;40.05;98257.13;5095191;28;20495;-76
2021/07/06 10:58:58;;;;;;;2.50;2.30;;;;;;;28.04;39.65;98252.22;5097930;28;20020;-74
2021/07/06 11:01:36;;;;;;;4.57;2.63;;;;;;;28.20;40.90;98248.03;5097490;28;20050;-76
2021/07/06 11:04:05;;;;;;;4.50;2.47;;;;;;;28.36;40.35;98248.25;5097870;28;20032;-76
2021/07/06 11:06:46;;;;;;;4.57;2.47;;;;;;;28.50;40.43;98255.72;5102601;28;20438;-75
2021/07/06 11:09:35;;;;;;;2.55;2.03;;;;;;;28.56;40.69;98258.84;5109118;28;20070;-76
2021/07/06 11:12:21;;;;;;;4.35;2.10;;;;;;;28.65;39.08;98249.91;5062572;28;20071;-75
2021/07/06 11:15:00;;;;;;;3.33;2.10;;;;;;;28.76;40.33;98252.59;5104319;28;20429;-78
2021/07/06 11:17:37;;;;;;;3.42;2.30;;;;;;;28.83;40.57;98241.22;5090538;28;20042;-76
2021/07/06 11:20:07;;;;;;;3.83;2.20;;;;;;;28.85;39.94;98240.75;5102319;28;20024;-78
2021/07/06 11:22:47;;;;;;;2.72;2.15;;;;;;;28.75;39.19;98240.50;5094578;28;20032;-77
2021/07/06 11:25:30;;;;;;;2.88;1.80;;;;;;;28.76;38.62;98233.63;5105190;28;20027;-77